Terminal Aerodrome Forecast
Issued by NWS

Home | Current Version | Previous Version | Text Only | Print | Product List | Glossary On
Versions: 1 2 3 4 5 6 7 8 9 10 11 12 13 14 15 16 17 18 19 20 21 22
000
FTUS42 KFFC 301131
TAFPDK
TAF
KPDK 301131Z 3012/0112 VRB03KT P6SM BKN250
     FM301500 14004KT P6SM SCT035 BKN250
     FM301800 17010KT P6SM VCSH BKN050 PROB30 3021/0101 4SM TSRA
      BKN030CB
     FM010100 17005KT P6SM SCT060 BKN250
     FM010900 23005KT P6SM BKN020=

USA.gov is the U.S. government's official web portal to all federal, state and local government web resources and services.